Time;durP1;ratioP1;P1;durP2;ratioP2;P2;SDS_P1;SDS_P2;PMS_P1;PMS_P2;Temp;Humidity;BMP_temperature;BMP_pressure;BME280_temperature;BME280_humidity;BME280_pressure;Samples;Min_cycle;Max_cycle;Signal;HPM_P1;HPM_P2
2022/01/15 00:00:14;;;;;;;20.80;13.70;;;-1.00;99.90;;;;;;5027778;28;20437;-89
2022/01/15 00:02:42;;;;;;;27.27;14.80;;;;;;;;;;5029016;28;20444;-90
2022/01/15 00:05:09;;;;;;;19.90;13.73;;;-1.10;99.90;;;;;;5026916;28;20844;-87
2022/01/15 00:07:38;;;;;;;21.40;14.10;;;-1.10;99.90;;;;;;5029741;28;20441;-88
2022/01/15 00:10:07;;;;;;;20.77;13.23;;;-1.20;99.90;;;;;;5022406;28;20455;-88
2022/01/15 00:12:39;;;;;;;28.80;13.23;;;;;;;;;;5017020;28;20453;-89
2022/01/15 00:15:08;;;;;;;20.33;14.10;;;-1.20;99.90;;;;;;5024597;28;21014;-87
2022/01/15 00:17:46;;;;;;;24.60;14.73;;;;;;;;;;5021700;28;20988;-88
2022/01/15 00:20:16;;;;;;;22.80;14.60;;;-1.20;99.90;;;;;;5018784;28;20484;-88
2022/01/15 00:22:47;;;;;;;24.80;15.30;;;-1.10;99.90;;;;;;5021377;28;20512;-88
2022/01/15 00:25:17;;;;;;;25.70;15.70;;;;;;;;;;5007337;28;20540;-87
2022/01/15 00:27:44;;;;;;;28.20;16.10;;;;;;;;;;5011282;28;20442;-88
2022/01/15 00:30:12;;;;;;;24.33;14.67;;;-1.30;99.90;;;;;;5010871;28;20718;-88
2022/01/15 00:32:39;;;;;;;24.03;15.53;;;-1.30;99.90;;;;;;5011579;28;20453;-88
2022/01/15 00:35:17;;;;;;;24.80;16.37;;;-1.30;99.90;;;;;;5033127;23;20497;-90
2022/01/15 00:37:46;;;;;;;24.03;15.40;;;-1.40;99.90;;;;;;5012260;28;20434;-89
2022/01/15 00:40:16;;;;;;;24.63;16.00;;;-1.30;99.90;;;;;;5013080;28;20453;-86
2022/01/15 00:42:43;;;;;;;26.47;14.90;;;;;;;;;;5023503;23;20491;-87
2022/01/15 00:45:17;;;;;;;30.73;17.60;;;-1.30;99.90;;;;;;5038489;23;20496;-87
2022/01/15 00:47:44;;;;;;;22.07;15.20;;;-1.30;99.90;;;;;;5031636;28;20484;-87
2022/01/15 00:50:12;;;;;;;22.70;14.57;;;;;;;;;;5031976;28;20457;-88
2022/01/15 00:52:45;;;;;;;24.70;15.30;;;-1.40;99.90;;;;;;5037653;23;20596;-88
2022/01/15 00:55:15;;;;;;;23.83;14.43;;;-1.40;99.90;;;;;;5028132;28;20445;-88
2022/01/15 00:57:42;;;;;;;28.87;15.03;;;;;;;;;;5031610;28;20449;-88
2022/01/15 01:00:12;;;;;;;22.47;15.17;;;-1.50;99.90;;;;;;5031904;28;20420;-87
2022/01/15 01:02:39;;;;;;;20.07;14.37;;;;;;;;;;5031076;28;20488;-88
2022/01/15 01:05:07;;;;;;;24.90;14.67;;;-1.50;99.90;;;;;;5031817;28;20507;-88
2022/01/15 01:07:34;;;;;;;22.57;15.00;;;;;;;;;;5026078;28;20468;-90
2022/01/15 01:10:15;;;;;;;21.90;14.20;;;;;;;;;;5030574;28;20429;-87
2022/01/15 01:13:07;;;;;;;24.50;15.40;;;;;;;;;;5031594;28;20469;-89
2022/01/15 01:21:36;;;;;;;25.30;12.17;;;;;;;;;;5029140;28;20508;-88
2022/01/15 01:24:01;;;;;;;23.90;13.00;;;;;;;;;;5031614;28;20480;-92
2022/01/15 01:26:37;;;;;;;23.50;13.37;;;;;;;;;;5031597;28;20448;-89
2022/01/15 01:29:13;;;;;;;19.50;12.67;;;;;;;;;;5030946;28;20480;-88
2022/01/15 01:31:53;;;;;;;22.73;13.10;;;;;;;;;;5030978;28;20508;-88
2022/01/15 01:34:24;;;;;;;23.00;13.63;;;;;;;;;;5044935;23;20588;-88
2022/01/15 01:36:59;;;;;;;22.20;12.60;;;;;;;;;;5029479;28;20471;-88
2022/01/15 01:39:36;;;;;;;24.07;14.27;;;;;;;;;;5036953;23;20495;-87
2022/01/15 01:42:11;;;;;;;21.40;13.70;;;-1.50;99.90;;;;;;5029730;28;20425;-87
2022/01/15 01:44:41;;;;;;;26.70;14.80;;;;;;;;;;5026214;28;20487;-92
2022/01/15 01:47:21;;;;;;;19.60;13.37;;;;;;;;;;5023128;28;20453;-87
2022/01/15 01:49:48;;;;;;;21.70;14.07;;;;;;;;;;5028237;28;20471;-89
2022/01/15 01:52:15;;;;;;;24.60;14.10;;;;;;;;;;5025734;28;20473;-87
2022/01/15 01:54:43;;;;;;;19.47;13.10;;;;;;;;;;5029221;28;20449;-89
2022/01/15 01:57:12;;;;;;;21.60;13.80;;;-1.50;99.90;;;;;;5026141;28;20448;-89
2022/01/15 01:59:39;;;;;;;20.20;12.10;;;;;;;;;;5023643;28;20499;-92
2022/01/15 02:02:06;;;;;;;24.33;13.47;;;;;;;;;;5026780;28;20457;-89
2022/01/15 02:04:34;;;;;;;21.70;13.13;;;;;;;;;;5022554;28;20515;-89
2022/01/15 02:07:01;;;;;;;21.97;12.57;;;-1.50;99.90;;;;;;5022907;28;20484;-89
2022/01/15 02:09:28;;;;;;;26.83;14.13;;;;;;;;;;5024980;28;20814;-90
2022/01/15 02:11:56;;;;;;;24.10;13.00;;;;;;;;;;5022163;28;20445;-89
2022/01/15 02:14:28;;;;;;;23.67;13.60;;;-1.60;99.90;;;;;;5021359;28;20445;-88
2022/01/15 02:16:55;;;;;;;26.60;16.30;;;;;;;;;;5018947;28;20483;-88
2022/01/15 02:19:23;;;;;;;26.30;14.00;;;;;;;;;;5020358;28;20469;-88
2022/01/15 02:24:35;;;;;;;21.67;14.57;;;;;;;;;;5023512;28;20615;-89
2022/01/15 02:27:02;;;;;;;23.87;13.70;;;;;;;;;;5023795;28;21082;-87
2022/01/15 02:29:29;;;;;;;23.37;14.50;;;;;;;;;;5023213;28;20506;-89
2022/01/15 02:31:58;;;;;;;24.33;14.03;;;;;;;;;;4971367;28;20570;-89
2022/01/15 02:34:25;;;;;;;21.37;13.97;;;;;;;;;;5022309;28;20455;-89
2022/01/15 02:36:54;;;;;;;21.20;14.67;;;-1.70;99.90;;;;;;5022961;28;20956;-91
2022/01/15 02:39:21;;;;;;;21.23;13.90;;;;;;;;;;5023330;28;20492;-89
2022/01/15 02:41:48;;;;;;;21.60;13.53;;;;;;;;;;5023657;28;20475;-89
2022/01/15 02:44:18;;;;;;;19.80;13.10;;;-1.80;99.90;;;;;;5022584;28;20484;-86
2022/01/15 02:49:30;;;;;;;21.73;14.50;;;-1.70;99.90;;;;;;5023294;28;20436;-90
2022/01/15 02:51:58;;;;;;;20.80;13.70;;;-1.80;99.90;;;;;;5022807;28;20438;-90
2022/01/15 02:54:25;;;;;;;22.37;13.50;;;;;;;;;;5022848;28;20432;-89
2022/01/15 02:56:54;;;;;;;21.73;14.33;;;;;;;;;;5022108;28;20828;-89
2022/01/15 02:59:22;;;;;;;21.10;14.00;;;-1.90;99.90;;;;;;5021963;28;20932;-89
2022/01/15 03:01:49;;;;;;;30.33;14.00;;;;;;;;;;5022565;28;20523;-90
2022/01/15 03:04:17;;;;;;;22.00;15.70;;;-2.00;99.90;;;;;;5021929;28;20884;-89
2022/01/15 03:06:44;;;;;;;21.10;14.57;;;;;;;;;;5023814;28;20453;-88
2022/01/15 03:09:12;;;;;;;21.17;15.07;;;-1.90;99.90;;;;;;5025122;28;20452;-87
2022/01/15 03:11:42;;;;;;;18.70;13.17;;;;;;;;;;5025103;28;20443;-90
2022/01/15 03:14:09;;;;;;;19.60;14.20;;;;;;;;;;5026579;28;20517;-89
2022/01/15 03:16:36;;;;;;;24.43;14.93;;;;;;;;;;5025547;28;20579;-93
2022/01/15 03:19:03;;;;;;;23.70;14.27;;;;;;;;;;5017017;28;20463;-88
2022/01/15 03:21:31;;;;;;;21.80;13.03;;;;;;;;;;5021462;28;20440;-89
2022/01/15 03:23:58;;;;;;;22.03;13.27;;;;;;;;;;5020221;28;20441;-91
2022/01/15 03:26:26;;;;;;;27.00;13.30;;;;;;;;;;5023153;28;20497;-89
2022/01/15 03:28:54;;;;;;;18.40;13.07;;;;;;;;;;5020751;28;20477;-90
2022/01/15 03:31:21;;;;;;;17.87;12.87;;;;;;;;;;5021914;28;20437;-89
2022/01/15 03:33:48;;;;;;;24.37;14.30;;;;;;;;;;5023200;28;20460;-89
2022/01/15 03:36:15;;;;;;;20.27;13.77;;;;;;;;;;5025309;28;20457;-88
2022/01/15 03:38:42;;;;;;;23.53;13.03;;;;;;;;;;5024255;28;20487;-88
2022/01/15 03:41:09;;;;;;;21.90;13.70;;;;;;;;;;5014178;28;20456;-88
2022/01/15 03:43:38;;;;;;;23.57;13.83;;;;;;;;;;5016066;28;20456;-88
2022/01/15 03:46:05;;;;;;;20.23;13.77;;;;;;;;;;5021733;28;20496;-87
2022/01/15 03:48:33;;;;;;;19.00;13.70;;;;;;;;;;5023409;28;20453;-88
2022/01/15 03:51:00;;;;;;;19.33;13.00;;;;;;;;;;5018334;28;20457;-88
2022/01/15 03:53:29;;;;;;;18.43;13.00;;;;;;;;;;5019167;28;20476;-88
2022/01/15 03:55:56;;;;;;;20.07;12.97;;;;;;;;;;5018347;28;20456;-87
2022/01/15 03:58:23;;;;;;;20.73;13.10;;;;;;;;;;5017110;28;20445;-90
2022/01/15 04:00:52;;;;;;;18.57;12.17;;;-2.10;99.90;;;;;;5017642;28;20455;-89
2022/01/15 04:03:20;;;;;;;20.47;13.67;;;-2.10;99.90;;;;;;5018251;28;20475;-87
2022/01/15 04:05:47;;;;;;;23.03;13.13;;;;;;;;;;5017286;28;20501;-87
2022/01/15 04:08:14;;;;;;;17.23;12.07;;;;;;;;;;5017282;28;20456;-89
2022/01/15 04:10:42;;;;;;;17.37;12.47;;;;;;;;;;5013865;28;20457;-90
2022/01/15 04:13:10;;;;;;;20.83;13.03;;;;;;;;;;5017094;28;20457;-87
2022/01/15 04:15:37;;;;;;;21.13;13.13;;;;;;;;;;5018613;28;20449;-87
2022/01/15 04:18:06;;;;;;;23.53;13.40;;;;;;;;;;5019981;28;20473;-91
2022/01/15 04:20:33;;;;;;;18.20;12.17;;;;;;;;;;5019970;28;20452;-88
2022/01/15 04:23:00;;;;;;;18.37;12.80;;;;;;;;;;5019973;28;20444;-89
2022/01/15 04:25:27;;;;;;;23.27;13.07;;;;;;;;;;5018317;28;20496;-88
2022/01/15 04:27:56;;;;;;;15.87;12.13;;;;;;;;;;5018213;28;20467;-89
2022/01/15 04:30:24;;;;;;;18.13;13.40;;;;;;;;;;5016690;28;20453;-92
2022/01/15 04:32:52;;;;;;;16.63;12.33;;;;;;;;;;5018131;28;20472;-88
2022/01/15 04:35:20;;;;;;;22.27;13.07;;;-2.20;99.90;;;;;;5014631;28;20456;-90
2022/01/15 04:37:52;;;;;;;19.67;12.17;;;;;;;;;;5017085;28;20477;-92
2022/01/15 04:40:22;;;;;;;18.87;11.37;;;;;;;;;;5014391;28;20453;-89
2022/01/15 04:42:49;;;;;;;20.20;12.00;;;;;;;;;;5014801;28;20445;-90
2022/01/15 04:45:16;;;;;;;17.37;11.90;;;;;;;;;;5016304;28;20478;-88
2022/01/15 04:47:43;;;;;;;22.10;11.67;;;;;;;;;;5017446;28;20464;-89
2022/01/15 04:50:13;;;;;;;18.20;12.30;;;-4.00;99.90;;;;;;5014287;28;20799;-88
2022/01/15 04:52:42;;;;;;;17.00;11.57;;;-2.20;99.90;;;;;;5017157;28;20449;-91
2022/01/15 04:55:12;;;;;;;17.67;12.33;;;-2.30;99.90;;;;;;5013890;28;20449;-87
2022/01/15 04:57:39;;;;;;;15.70;11.10;;;;;;;;;;5017164;28;20460;-92
2022/01/15 05:00:09;;;;;;;19.87;11.70;;;;;;;;;;5016424;28;20457;-90
2022/01/15 05:02:36;;;;;;;16.73;11.83;;;;;;;;;;5017027;28;20445;-86
2022/01/15 05:05:04;;;;;;;19.50;11.97;;;-2.30;99.90;;;;;;5017210;28;20488;-89
2022/01/15 05:07:31;;;;;;;17.80;11.47;;;;;;;;;;5017365;28;20449;-86
2022/01/15 05:10:01;;;;;;;16.83;11.77;;;;;;;;;;5009228;28;20827;-88
2022/01/15 05:12:31;;;;;;;16.13;10.97;;;;;;;;;;5017625;28;20445;-90
2022/01/15 05:14:58;;;;;;;15.80;11.43;;;;;;;;;;5016230;28;20453;-91
2022/01/15 05:17:25;;;;;;;14.50;10.30;;;;;;;;;;5017105;28;20459;-91
2022/01/15 05:19:52;;;;;;;18.53;11.87;;;;;;;;;;5017147;28;20457;-91
2022/01/15 05:22:20;;;;;;;18.00;11.50;;;;;;;;;;5013890;28;20457;-89
2022/01/15 05:24:47;;;;;;;17.93;11.03;;;;;;;;;;5016604;28;20445;-89
2022/01/15 05:27:15;;;;;;;16.77;10.90;;;-2.50;99.90;;;;;;5016398;28;20477;-93
2022/01/15 05:29:44;;;;;;;18.20;11.40;;;;;;;;;;5010136;28;20456;-86
2022/01/15 05:32:11;;;;;;;20.70;11.83;;;;;;;;;;5016842;28;20449;-87
2022/01/15 05:34:38;;;;;;;14.77;10.33;;;;;;;;;;5016516;28;20444;-88
2022/01/15 05:37:05;;;;;;;13.90;9.40;;;;;;;;;;5016584;28;20457;-89
2022/01/15 05:39:32;;;;;;;16.27;10.17;;;;;;;;;;5016322;28;20476;-90
2022/01/15 05:41:59;;;;;;;18.37;11.13;;;;;;;;;;5016743;28;20461;-88
2022/01/15 05:44:28;;;;;;;16.40;11.07;;;-2.50;99.90;;;;;;5015387;28;20449;-89
2022/01/15 05:46:55;;;;;;;16.53;10.20;;;;;;;;;;5016145;28;20484;-88
2022/01/15 05:49:22;;;;;;;17.80;10.60;;;;;;;;;;5012966;28;20440;-89
2022/01/15 05:51:49;;;;;;;16.77;10.50;;;;;;;;;;5015894;28;20520;-88
2022/01/15 05:54:16;;;;;;;15.13;10.60;;;;;;;;;;5016059;28;20452;-89
2022/01/15 05:56:43;;;;;;;17.80;10.33;;;;;;;;;;5015003;28;20453;-87
2022/01/15 05:59:10;;;;;;;18.60;11.23;;;;;;;;;;5014836;28;20449;-89
2022/01/15 06:01:39;;;;;;;15.83;10.40;;;;;;;;;;5016065;28;20448;-88
2022/01/15 06:04:06;;;;;;;13.87;9.63;;;;;;;;;;5015606;28;20456;-90
2022/01/15 06:06:33;;;;;;;15.30;10.97;;;;;;;;;;5015357;28;20534;-90
2022/01/15 06:09:00;;;;;;;14.37;10.33;;;;;;;;;;5015648;28;20453;-92
2022/01/15 06:11:27;;;;;;;16.17;9.90;;;;;;;;;;5015316;28;20807;-89
2022/01/15 06:13:55;;;;;;;16.27;10.90;;;;;;;;;;5014571;28;20457;-88
2022/01/15 06:16:22;;;;;;;15.47;11.17;;;-2.50;99.90;;;;;;5015685;28;20449;-90
2022/01/15 06:18:50;;;;;;;16.57;10.40;;;-2.50;99.90;;;;;;5015596;28;20460;-92
2022/01/15 06:21:17;;;;;;;23.80;10.60;;;;;;;;;;5015566;28;20459;-88
2022/01/15 06:23:44;;;;;;;15.97;10.30;;;;;;;;;;5015777;28;20464;-93
2022/01/15 06:26:11;;;;;;;19.10;10.80;;;;;;;;;;5015206;28;20564;-91
2022/01/15 06:28:39;;;;;;;15.10;10.53;;;;;;;;;;5014901;28;20431;-90
2022/01/15 06:31:06;;;;;;;17.30;10.30;;;;;;;;;;5012974;28;20456;-90
2022/01/15 06:33:33;;;;;;;17.13;12.33;;;;;;;;;;5016576;28;20468;-89
2022/01/15 06:36:02;;;;;;;18.83;10.93;;;;;;;;;;5015959;28;20452;-88
2022/01/15 06:38:29;;;;;;;19.10;12.67;;;;;;;;;;5014647;28;20488;-91
2022/01/15 06:40:56;;;;;;;17.87;11.53;;;;;;;;;;5014842;28;20799;-89
2022/01/15 06:43:23;;;;;;;17.40;10.93;;;;;;;;;;5015699;28;20449;-89
2022/01/15 06:45:50;;;;;;;22.87;11.50;;;;;;;;;;5018334;28;20492;-90
2022/01/15 06:48:17;;;;;;;23.20;11.70;;;;;;;;;;5020890;28;20799;-88
2022/01/15 06:50:44;;;;;;;19.87;12.10;;;;;;;;;;5023197;28;20448;-89
2022/01/15 06:53:13;;;;;;;13.80;9.83;;;-2.60;99.90;;;;;;5019189;28;20812;-89
2022/01/15 06:55:40;;;;;;;23.57;12.80;;;;;;;;;;5020569;28;20829;-89
2022/01/15 06:58:07;;;;;;;13.00;10.00;;;-2.70;99.90;;;;;;5017453;28;20983;-88
2022/01/15 07:00:35;;;;;;;14.70;10.90;;;;;;;;;;5011902;28;20789;-90
2022/01/15 07:03:02;;;;;;;15.00;10.20;;;;;;;;;;5013613;28;20460;-88
2022/01/15 07:05:29;;;;;;;16.10;10.50;;;;;;;;;;5016869;28;20464;-91
2022/01/15 07:07:57;;;;;;;15.03;10.63;;;;;;;;;;5015877;28;20445;-88
2022/01/15 07:10:27;;;;;;;17.53;11.30;;;-2.70;99.90;;;;;;5027843;28;20468;-87
2022/01/15 07:12:58;;;;;;;17.03;10.70;;;;;;;;;;4968271;29;20942;-87
2022/01/15 07:15:27;;;;;;;18.67;11.27;;;;;;;;;;5009524;23;20480;-87
2022/01/15 07:17:58;;;;;;;19.00;11.20;;;;;;;;;;5027625;28;20447;-87
2022/01/15 07:20:26;;;;;;;13.90;10.60;;;;;;;;;;5029289;28;20441;-87
2022/01/15 07:25:21;;;;;;;14.60;11.03;;;;;;;;;;5027845;28;20504;-88
2022/01/15 07:27:50;;;;;;;18.40;9.70;;;;;;;;;;5035036;23;20472;-87
2022/01/15 07:30:17;;;;;;;19.00;11.10;;;;;;;;;;5023750;28;21014;-87
2022/01/15 07:32:46;;;;;;;17.07;11.60;;;;;;;;;;5025527;28;20548;-90
2022/01/15 07:35:13;;;;;;;17.93;12.17;;;;;;;;;;5021645;28;20564;-89
2022/01/15 07:37:40;;;;;;;20.73;14.40;;;;;;;;;;5027278;28;20456;-86
2022/01/15 07:40:10;;;;;;;18.83;11.93;;;-2.40;99.90;;;;;;5037153;23;20403;-86
2022/01/15 07:42:39;;;;;;;14.40;10.83;;;;;;;;;;5031866;28;20452;-90
2022/01/15 07:45:10;;;;;;;19.70;12.03;;;-2.40;99.90;;;;;;5025069;28;20427;-91
2022/01/15 07:47:37;;;;;;;21.03;12.80;;;;;;;;;;5029385;28;20492;-87
2022/01/15 07:50:04;;;;;;;17.03;11.70;;;;;;;;;;5021698;28;20445;-91
2022/01/15 07:52:31;;;;;;;18.20;11.50;;;;;;;;;;5017063;28;20479;-92
2022/01/15 07:55:00;;;;;;;15.27;10.90;;;;;;;;;;5019608;28;20521;-89
2022/01/15 07:57:27;;;;;;;17.47;10.93;;;-2.10;99.90;;;;;;5018810;28;20419;-90
2022/01/15 08:00:01;;;;;;;17.80;11.87;;;-2.10;99.90;;;;;;5018879;28;20420;-92
2022/01/15 08:02:29;;;;;;;21.70;11.50;;;-2.00;99.90;;;;;;5025611;28;20438;-91
2022/01/15 08:04:56;;;;;;;17.67;11.13;;;;;;;;;;5020540;28;20453;-90
2022/01/15 08:07:23;;;;;;;19.47;11.60;;;;;;;;;;5020370;28;20503;-88
2022/01/15 08:09:51;;;;;;;18.10;12.97;;;;;;;;;;5020100;28;20453;-90
2022/01/15 08:12:19;;;;;;;17.20;11.57;;;;;;;;;;5016839;28;20501;-89
2022/01/15 08:14:46;;;;;;;18.17;11.23;;;;;;;;;;5016422;28;20483;-92
2022/01/15 08:17:13;;;;;;;19.90;13.60;;;;;;;;;;5021024;28;20445;-90
2022/01/15 08:19:42;;;;;;;21.47;13.83;;;;;;;;;;5017855;28;20457;-88
2022/01/15 08:22:10;;;;;;;22.67;13.07;;;;;;;;;;5019029;28;20441;-94
2022/01/15 08:24:37;;;;;;;22.80;14.50;;;;;;;;;;5014599;28;20472;-91
2022/01/15 08:27:05;;;;;;;16.67;13.20;;;0.20;99.90;;;;;;5017783;28;20512;-91
2022/01/15 08:29:32;;;;;;;21.33;13.10;;;;;;;;;;5013733;28;20449;-90
2022/01/15 08:31:59;;;;;;;20.53;14.07;;;;;;;;;;5018703;28;20449;-90
2022/01/15 08:34:26;;;;;;;19.80;14.23;;;;;;;;;;5018206;28;20463;-89
2022/01/15 08:36:55;;;;;;;19.07;13.70;;;1.90;99.90;;;;;;5018584;28;20468;-89
2022/01/15 08:39:22;;;;;;;18.10;13.37;;;;;;;;;;5018929;28;21024;-87
2022/01/15 08:41:49;;;;;;;18.10;13.77;;;;;;;;;;5016889;28;20496;-92
2022/01/15 08:44:16;;;;;;;19.23;15.00;;;;;;;;;;5016290;28;20452;-90
2022/01/15 08:46:44;;;;;;;19.20;14.30;;;;;;;;;;5016484;28;20523;-88
2022/01/15 08:49:13;;;;;;;20.40;14.43;;;;;;;;;;5017010;28;20524;-92
2022/01/15 08:51:40;;;;;;;16.80;13.63;;;;;;;;;;5019637;28;20449;-92
2022/01/15 08:54:09;;;;;;;19.27;13.53;;;5.70;99.90;;;;;;5018574;28;20445;-92
2022/01/15 08:56:36;;;;;;;19.23;14.67;;;;;;;;;;5020439;28;20446;-92
2022/01/15 08:59:04;;;;;;;16.73;14.03;;;6.10;99.90;;;;;;5017557;28;20447;-88
2022/01/15 09:01:31;;;;;;;16.50;13.90;;;;;;;;;;5020780;28;20455;-92
2022/01/15 09:03:58;;;;;;;18.03;14.00;;;;;;;;;;5018327;28;20478;-92
2022/01/15 09:06:27;;;;;;;18.00;14.47;;;;;;;;;;5017423;28;20479;-92
2022/01/15 09:08:54;;;;;;;16.93;13.33;;;;;;;;;;5017276;28;20522;-92
2022/01/15 09:11:24;;;;;;;15.50;13.67;;;6.60;99.90;;;;;;5013870;28;20446;-92
2022/01/15 09:13:51;;;;;;;16.83;13.80;;;;;;;;;;5016675;28;20447;-94
2022/01/15 09:16:21;;;;;;;15.50;13.70;;;;;;;;;;5017898;28;20449;-91
2022/01/15 09:18:48;;;;;;;13.53;12.13;;;;;;;;;;5019507;28;20904;-93
2022/01/15 09:21:15;;;;;;;15.03;13.10;;;;;;;;;;5027758;28;20450;-92
2022/01/15 09:27:01;;;;;;;15.27;12.53;;;;;;;;;;5051783;23;20498;-94
2022/01/15 09:32:13;;;;;;;14.33;12.30;;;;;;;;;;5022715;28;20438;-94
2022/01/15 09:34:42;;;;;;;16.10;13.10;;;;;;;;;;5024738;28;20456;-92
2022/01/15 09:39:58;;;;;;;14.90;13.17;;;;;;;;;;5097482;23;20474;-94
2022/01/15 09:42:40;;;;;;;13.10;11.73;;;;;;;;;;5028425;28;20811;-95
2022/01/15 09:45:14;;;;;;;18.00;13.57;;;;;;;;;;5025710;28;20467;-96
2022/01/15 09:47:44;;;;;;;12.87;11.67;;;9.90;99.90;;;;;;5036490;23;20519;-94
2022/01/15 09:55:24;;;;;;;13.70;11.57;;;;;;;;;;5034740;23;20475;-94
2022/01/15 09:57:55;;;;;;;12.20;10.93;;;10.30;98.30;;;;;;5049992;23;20515;-94
2022/01/15 10:03:06;;;;;;;12.77;11.40;;;;;;;;;;5035958;28;20469;-95
2022/01/15 10:08:14;;;;;;;14.67;13.07;;;;;;;;;;5023502;28;20508;-95
2022/01/15 10:10:43;;;;;;;18.40;12.30;;;;;;;;;;5031311;28;20463;-94
2022/01/15 10:13:19;;;;;;;15.67;13.23;;;10.90;96.40;;;;;;5026528;28;20456;-92
2022/01/15 10:19:03;;;;;;;17.70;14.00;;;;;;;;;;4946958;29;20434;-95
2022/01/15 10:21:44;;;;;;;15.40;13.80;;;;;;;;;;4948627;29;20426;-95
2022/01/15 10:24:13;;;;;;;16.07;14.37;;;;;;;;;;4987816;28;20514;-94
2022/01/15 10:26:41;;;;;;;21.33;14.73;;;;;;;;;;5024044;28;20641;-95
2022/01/15 10:29:15;;;;;;;17.40;15.47;;;;;;;;;;5024818;28;20498;-96
2022/01/15 10:31:48;;;;;;;16.87;15.03;;;10.30;98.50;;;;;;5022162;28;20466;-93
2022/01/15 10:34:25;;;;;;;18.70;16.27;;;;;;;;;;5004979;28;20453;-94
2022/01/15 10:39:55;;;;;;;17.83;15.50;;;;;;;;;;5005291;28;20475;-94
2022/01/15 10:45:52;;;;;;;17.17;14.40;;;9.40;99.30;;;;;;5049991;23;20495;-93
2022/01/15 10:48:31;;;;;;;17.30;15.50;;;9.40;99.30;;;;;;5033879;28;20514;-92
2022/01/15 10:54:05;;;;;;;19.03;16.10;;;;;;;;;;5038208;28;20479;-92
2022/01/15 10:56:42;;;;;;;15.97;14.47;;;;;;;;;;5107547;23;20424;-93
2022/01/15 10:59:25;;;;;;;17.87;14.70;;;;;;;;;;5022059;23;20487;-92
2022/01/15 11:01:54;;;;;;;18.13;15.30;;;;;;;;;;5032950;28;20458;-93
2022/01/15 11:04:49;;;;;;;17.03;15.20;;;10.10;97.80;;;;;;5034507;28;20430;-94
2022/01/15 11:12:50;;;;;;;18.77;16.80;;;;;;;;;;4825685;23;6971996;-94
2022/01/15 11:15:26;;;;;;;17.27;15.40;;;;;;;;;;5084220;23;20221;-94
2022/01/15 11:20:53;;;;;;;17.23;15.43;;;;;;;;;;5030319;28;20478;-94
2022/01/15 11:23:25;;;;;;;17.43;15.27;;;;;;;;;;5030073;28;20431;-92
2022/01/15 11:25:55;;;;;;;17.43;14.40;;;10.40;97.70;;;;;;4974681;28;20982;-92
2022/01/15 11:28:29;;;;;;;14.60;13.10;;;;;;;;;;5009459;28;20488;-93
2022/01/15 11:31:02;;;;;;;17.83;13.97;;;9.50;98.50;;;;;;5011938;28;20486;-91
2022/01/15 11:33:34;;;;;;;15.23;12.90;;;10.00;97.80;;;;;;5012971;28;20449;-93
2022/01/15 11:36:31;;;;;;;17.10;13.70;;;10.40;97.20;;;;;;5015024;28;20505;-95
2022/01/15 11:41:45;;;;;;;17.30;15.27;;;;;;;;;;5013604;28;20516;-93
2022/01/15 11:44:36;;;;;;;21.47;17.17;;;;;;;;;;5010643;28;20524;-94
2022/01/15 11:47:15;;;;;;;18.67;15.37;;;;;;;;;;5009873;28;20579;-93
2022/01/15 11:49:50;;;;;;;17.73;14.90;;;;;;;;;;5010808;28;20469;-92
2022/01/15 11:52:43;;;;;;;18.43;14.90;;;;;;;;;;5106508;23;20497;-95
2022/01/15 11:55:15;;;;;;;17.60;15.10;;;10.40;96.60;;;;;;5023957;28;20446;-91
2022/01/15 11:57:49;;;;;;;17.37;14.77;;;10.30;96.70;;;;;;5017005;28;20553;-91
2022/01/15 12:00:26;;;;;;;16.10;14.37;;;10.90;95.60;;;;;;5015552;28;20462;-92
2022/01/15 12:03:12;;;;;;;21.27;15.30;;;11.10;95.50;;;;;;5013811;28;20458;-93
2022/01/15 12:05:41;;;;;;;19.37;14.47;;;10.90;95.70;;;;;;5022424;28;20898;-93
2022/01/15 12:08:32;;;;;;;20.10;15.50;;;10.80;95.20;;;;;;5012473;28;20488;-93
2022/01/15 12:11:09;;;;;;;19.50;16.07;;;;;;;;;;5022565;28;20492;-94
2022/01/15 12:13:51;;;;;;;24.57;19.27;;;10.30;95.90;;;;;;5023032;28;21005;-93
2022/01/15 12:16:28;;;;;;;18.10;15.83;;;;;;;;;;5027787;28;20938;-94
2022/01/15 12:18:58;;;;;;;21.23;14.90;;;9.40;97.70;;;;;;5020608;28;20558;-93
2022/01/15 12:21:54;;;;;;;19.80;15.63;;;9.80;97.00;;;;;;5019004;28;20437;-95
2022/01/15 12:24:54;;;;;;;19.50;15.63;;;9.80;98.00;;;;;;5017477;28;20467;-93
2022/01/15 12:27:26;;;;;;;19.30;15.90;;;10.30;96.80;;;;;;5018462;28;20655;-93
2022/01/15 12:30:10;;;;;;;22.70;19.00;;;;;;;;;;5021230;28;20458;-95
2022/01/15 12:32:41;;;;;;;21.17;17.80;;;10.70;95.80;;;;;;5024986;28;20452;-94
2022/01/15 12:35:15;;;;;;;21.73;16.93;;;10.80;95.80;;;;;;5020652;28;20517;-93
2022/01/15 12:37:56;;;;;;;20.50;16.70;;;10.90;96.40;;;;;;5026986;28;20478;-93
2022/01/15 12:40:29;;;;;;;21.70;16.23;;;10.90;96.00;;;;;;5022631;28;20550;-93
2022/01/15 12:42:56;;;;;;;24.20;17.73;;;;;;;;;;5020338;28;20460;-94
2022/01/15 12:45:24;;;;;;;22.73;17.03;;;;;;;;;;5020333;28;20539;-94
2022/01/15 12:47:51;;;;;;;19.47;15.93;;;;;;;;;;5018940;28;20491;-93
2022/01/15 12:50:19;;;;;;;21.87;16.20;;;;;;;;;;5019536;28;20521;-93
2022/01/15 12:52:46;;;;;;;21.53;17.63;;;;;;;;;;5025092;28;20925;-92
2022/01/15 12:55:14;;;;;;;19.17;16.87;;;;;;;;;;5027589;28;20458;-93
2022/01/15 12:57:54;;;;;;;21.40;16.63;;;;;;;;;;5029709;28;20473;-92
2022/01/15 13:00:23;;;;;;;32.03;18.10;;;11.20;95.40;;;;;;5039652;28;20446;-93
2022/01/15 13:02:56;;;;;;;20.80;16.93;;;10.80;95.70;;;;;;5034954;28;20555;-93
2022/01/15 13:05:25;;;;;;;20.43;17.43;;;10.60;96.20;;;;;;5016514;28;20457;-93
2022/01/15 13:07:57;;;;;;;19.37;17.30;;;10.90;95.40;;;;;;5020266;28;20492;-93
2022/01/15 13:10:48;;;;;;;23.40;17.23;;;10.20;96.60;;;;;;5020699;28;20456;-93
2022/01/15 13:13:24;;;;;;;18.43;16.30;;;10.70;96.40;;;;;;5021707;28;20459;-91
2022/01/15 13:16:00;;;;;;;24.00;17.50;;;10.80;96.50;;;;;;5021448;28;20489;-92
2022/01/15 13:18:30;;;;;;;21.80;16.97;;;;;;;;;;5020176;28;20456;-93
2022/01/15 13:20:59;;;;;;;20.43;16.53;;;10.40;96.50;;;;;;5026085;28;20458;-94
2022/01/15 13:23:36;;;;;;;21.80;18.40;;;10.50;96.60;;;;;;5020924;28;20433;-92
2022/01/15 13:26:04;;;;;;;19.00;16.30;;;;;;;;;;5018618;28;20486;-95
2022/01/15 13:28:35;;;;;;;20.67;18.20;;;10.40;96.70;;;;;;5020393;28;20606;-94
2022/01/15 13:31:02;;;;;;;18.73;16.40;;;;;;;;;;5017073;28;20487;-93
2022/01/15 13:33:39;;;;;;;22.33;17.93;;;;;;;;;;5019358;28;20457;-93
2022/01/15 13:36:08;;;;;;;21.07;16.60;;;;;;;;;;4967375;28;20499;-94
2022/01/15 13:38:37;;;;;;;21.90;17.87;;;10.60;95.90;;;;;;4962163;28;21030;-93
2022/01/15 13:41:14;;;;;;;21.47;17.20;;;10.60;95.70;;;;;;4953980;29;20470;-93
2022/01/15 13:43:44;;;;;;;22.77;18.07;;;10.20;96.10;;;;;;4958361;28;20540;-94
2022/01/15 13:46:13;;;;;;;19.67;16.87;;;;;;;;;;4956337;28;20520;-94
2022/01/15 13:48:40;;;;;;;23.27;18.73;;;;;;;;;;4959410;28;20508;-92
2022/01/15 13:53:59;;;;;;;21.70;17.57;;;10.60;95.80;;;;;;4983010;28;21022;-93
2022/01/15 13:56:27;;;;;;;22.73;17.53;;;;;;;;;;5016937;28;20488;-94
2022/01/15 13:59:06;;;;;;;20.40;16.30;;;10.60;95.30;;;;;;5019945;28;20466;-94
2022/01/15 14:01:35;;;;;;;19.80;16.70;;;;;;;;;;5027358;28;20550;-95
2022/01/15 14:04:22;;;;;;;19.90;17.33;;;;;;;;;;5024893;28;20431;-94
2022/01/15 14:07:01;;;;;;;20.47;17.77;;;;;;;;;;5035527;23;20566;-93
2022/01/15 14:09:29;;;;;;;21.47;17.80;;;;;;;;;;5025405;28;21024;-93
2022/01/15 14:12:15;;;;;;;20.40;18.27;;;10.40;96.00;;;;;;5021301;28;20519;-94
2022/01/15 14:14:57;;;;;;;22.30;17.63;;;9.60;97.60;;;;;;5024900;28;20542;-93
2022/01/15 14:17:28;;;;;;;21.20;17.63;;;;;;;;;;5021593;28;20940;-94
2022/01/15 14:20:15;;;;;;;19.63;17.53;;;;;;;;;;5020137;28;20943;-94
2022/01/15 14:22:44;;;;;;;24.27;19.13;;;9.40;97.90;;;;;;5021816;28;20458;-93
2022/01/15 14:25:15;;;;;;;26.87;19.03;;;9.30;97.80;;;;;;5013805;28;20461;-93
2022/01/15 14:27:42;;;;;;;23.63;19.13;;;;;;;;;;5017324;28;20472;-93
2022/01/15 14:30:11;;;;;;;26.97;19.20;;;;;;;;;;5017765;28;20804;-93
2022/01/15 14:32:39;;;;;;;23.10;18.87;;;;;;;;;;5018188;28;20466;-94
2022/01/15 14:35:06;;;;;;;23.60;19.07;;;;;;;;;;5017484;28;20456;-93
2022/01/15 14:37:34;;;;;;;25.00;19.17;;;;;;;;;;5017486;28;20540;-93
2022/01/15 14:40:01;;;;;;;23.80;18.90;;;;;;;;;;5018330;28;20457;-93
2022/01/15 14:42:28;;;;;;;22.93;18.83;;;;;;;;;;5019067;28;20461;-95
2022/01/15 14:44:57;;;;;;;23.30;19.97;;;;;;;;;;5016735;28;20469;-94
2022/01/15 14:47:25;;;;;;;22.83;18.67;;;;;;;;;;5014402;28;20459;-94
2022/01/15 14:49:53;;;;;;;25.90;19.50;;;;;;;;;;5016550;28;21017;-92
2022/01/15 14:52:20;;;;;;;22.97;18.40;;;;;;;;;;5017594;28;20458;-93
2022/01/15 14:54:47;;;;;;;23.07;18.30;;;;;;;;;;5017396;28;20482;-94
2022/01/15 14:57:15;;;;;;;29.40;19.57;;;;;;;;;;5017794;28;20467;-93